Time;durP1;ratioP1;P1;durP2;ratioP2;P2;SDS_P1;SDS_P2;PMS_P1;PMS_P2;Temp;Humidity;BMP_temperature;BMP_pressure;BME280_temperature;BME280_humidity;BME280_pressure;Samples;Min_cycle;Max_cycle;Signal;HPM_P1;HPM_P2
2023/12/12 00:01:00;;;;;;;11.27;7.13;;;;;;;8.12;100.00;100497.16;6183734;28;20246;-74
2023/12/12 00:04:22;;;;;;;7.43;6.23;;;;;;;8.07;100.00;100497.56;6177268;28;20260;-74
2023/12/12 00:07:43;;;;;;;6.53;5.37;;;;;;;8.05;100.00;100504.06;6166113;28;20371;-75
2023/12/12 00:11:05;;;;;;;6.13;5.47;;;;;;;8.04;100.00;100494.28;6182389;28;20313;-75
2023/12/12 00:14:26;;;;;;;6.43;5.70;;;;;;;8.01;100.00;100498.06;6186296;28;20237;-74
2023/12/12 00:17:47;;;;;;;9.30;6.50;;;;;;;7.94;100.00;100504.09;6184927;28;20566;-74
2023/12/12 00:21:09;;;;;;;6.37;5.23;;;;;;;7.91;100.00;100499.84;6170241;28;20238;-74
2023/12/12 00:24:30;;;;;;;13.63;8.03;;;;;;;7.84;100.00;100511.22;6185556;28;20651;-74
2023/12/12 00:27:51;;;;;;;8.13;7.33;;;;;;;7.86;100.00;100512.78;6180238;28;20813;-75
2023/12/12 00:31:12;;;;;;;8.27;6.00;;;;;;;7.91;100.00;100520.44;6170478;28;20233;-74
2023/12/12 00:34:36;;;;;;;8.50;5.67;;;;;;;7.77;100.00;100520.75;6169749;28;20233;-75
2023/12/12 00:37:58;;;;;;;6.30;5.67;;;;;;;7.62;100.00;100530.91;6182902;28;20233;-75
2023/12/12 00:41:19;;;;;;;7.50;5.20;;;;;;;7.67;100.00;100528.72;6167258;28;20238;-74
2023/12/12 00:44:39;;;;;;;4.73;4.27;;;;;;;7.53;100.00;100534.34;6175339;28;20237;-75
2023/12/12 00:48:00;;;;;;;6.57;5.40;;;;;;;7.46;100.00;100543.88;6188192;28;20237;-75
2023/12/12 00:51:21;;;;;;;8.33;5.13;;;;;;;7.39;100.00;100550.72;6189293;28;20682;-75
2023/12/12 00:54:43;;;;;;;7.37;6.13;;;;;;;7.47;100.00;100544.75;6189270;28;21025;-75
2023/12/12 00:58:04;;;;;;;5.40;4.80;;;;;;;7.45;100.00;100557.44;6170845;28;20225;-74
2023/12/12 01:01:25;;;;;;;6.67;5.40;;;;;;;7.41;100.00;100559.47;6181450;28;20238;-75
2023/12/12 01:04:46;;;;;;;5.83;5.20;;;;;;;7.52;100.00;100555.94;6186992;28;20237;-75
2023/12/12 01:08:08;;;;;;;5.90;5.30;;;;;;;7.33;100.00;100556.56;6189684;28;20225;-75
2023/12/12 01:11:30;;;;;;;9.70;6.87;;;;;;;7.41;100.00;100570.19;6188268;28;20293;-75
2023/12/12 01:14:58;;;;;;;13.90;7.27;;;;;;;7.30;100.00;100566.69;6186728;28;20237;-75
2023/12/12 01:18:19;;;;;;;9.60;7.57;;;;;;;7.39;100.00;100566.78;6188871;28;20611;-74
2023/12/12 01:21:40;;;;;;;11.23;6.80;;;;;;;7.25;100.00;100567.91;6190665;28;20319;-74
2023/12/12 01:25:00;;;;;;;10.13;7.63;;;;;;;7.13;100.00;100573.41;6186165;28;20230;-75
2023/12/12 01:28:23;;;;;;;11.37;6.30;;;;;;;6.88;100.00;100579.00;6188411;28;20336;-74
2023/12/12 01:31:44;;;;;;;12.23;8.57;;;;;;;6.85;100.00;100582.75;6179160;28;20560;-74
2023/12/12 01:35:05;;;;;;;9.30;8.40;;;;;;;6.86;100.00;100591.66;6187329;28;20229;-74
2023/12/12 01:38:26;;;;;;;12.47;8.03;;;;;;;6.80;100.00;100584.94;6169504;28;20504;-74
2023/12/12 01:41:47;;;;;;;10.93;8.37;;;;;;;6.85;100.00;100604.19;6190757;28;20344;-75
2023/12/12 01:45:10;;;;;;;10.20;5.70;;;;;;;6.77;100.00;100597.72;6188766;28;20233;-75
2023/12/12 01:48:33;;;;;;;8.47;7.47;;;;;;;6.68;100.00;100611.81;6185276;28;20526;-74
2023/12/12 01:51:54;;;;;;;9.53;7.10;;;;;;;6.80;100.00;100595.63;6188443;28;20226;-75
2023/12/12 01:55:15;;;;;;;13.43;6.87;;;;;;;6.88;100.00;100598.59;6188822;28;20233;-75
2023/12/12 01:58:37;;;;;;;8.90;7.77;;;;;;;6.84;100.00;100601.63;6182687;28;20814;-75
2023/12/12 02:01:58;;;;;;;9.77;7.43;;;;;;;6.88;100.00;100597.75;6189134;28;20630;-73
2023/12/12 02:05:20;;;;;;;12.03;7.53;;;;;;;6.94;100.00;100600.81;6191325;28;20312;-74
2023/12/12 02:08:41;;;;;;;10.83;8.23;;;;;;;6.92;100.00;100596.53;6183327;28;20241;-74
2023/12/12 02:12:03;;;;;;;14.00;10.57;;;;;;;6.97;100.00;100592.50;6188339;28;20238;-74
2023/12/12 02:15:24;;;;;;;13.23;8.43;;;;;;;6.96;100.00;100600.66;6183785;28;21152;-74
2023/12/12 02:18:55;;;;;;;10.87;9.30;;;;;;;6.96;100.00;100598.00;6189245;28;20230;-74
2023/12/12 02:22:17;;;;;;;11.93;8.07;;;;;;;7.03;100.00;100597.38;6182818;28;20275;-74
2023/12/12 02:25:38;;;;;;;11.80;7.43;;;;;;;7.17;100.00;100594.50;6182524;28;20261;-74
2023/12/12 02:29:00;;;;;;;13.40;8.73;;;;;;;7.20;100.00;100596.03;6181339;28;20245;-74
2023/12/12 02:32:21;;;;;;;12.87;8.90;;;;;;;7.31;100.00;100593.38;6182224;28;20320;-74
2023/12/12 02:35:41;;;;;;;12.80;9.73;;;;;;;7.24;100.00;100582.28;6180229;28;20777;-74
2023/12/12 02:39:04;;;;;;;18.37;11.47;;;;;;;7.25;100.00;100596.53;6180586;28;20520;-73
2023/12/12 02:42:25;;;;;;;10.30;8.00;;;;;;;7.28;100.00;100592.78;6184960;28;20234;-74
2023/12/12 02:45:45;;;;;;;11.30;8.43;;;;;;;7.28;100.00;100593.59;6184589;28;20484;-74
2023/12/12 02:49:06;;;;;;;15.50;9.00;;;;;;;7.28;100.00;100594.47;6180111;28;20321;-74
2023/12/12 02:52:27;;;;;;;12.90;11.23;;;;;;;7.34;100.00;100597.66;6184638;28;20257;-74
2023/12/12 02:55:50;;;;;;;13.77;9.63;;;;;;;7.33;100.00;100602.16;6181053;28;20249;-74
2023/12/12 02:59:11;;;;;;;12.60;8.53;;;;;;;7.32;100.00;100591.56;6186124;28;20526;-73
2023/12/12 03:02:32;;;;;;;13.83;11.57;;;;;;;7.29;100.00;100603.38;6186173;28;20237;-74
2023/12/12 03:05:54;;;;;;;15.70;10.07;;;;;;;7.19;100.00;100597.03;6186506;28;20232;-74
2023/12/12 03:09:14;;;;;;;15.13;12.50;;;;;;;7.26;100.00;100599.09;6182698;28;20642;-74
2023/12/12 03:12:37;;;;;;;12.10;9.30;;;;;;;7.24;100.00;100597.50;6173103;28;20230;-75
2023/12/12 03:15:57;;;;;;;18.07;12.63;;;;;;;7.27;100.00;100605.31;6167805;28;21232;-74
2023/12/12 03:19:18;;;;;;;15.57;10.63;;;;;;;7.29;100.00;100603.38;6188414;28;20352;-75
2023/12/12 03:22:40;;;;;;;14.37;10.47;;;;;;;7.28;100.00;100608.88;6187365;28;20264;-74
2023/12/12 03:26:07;;;;;;;17.20;12.13;;;;;;;7.23;100.00;100609.22;6185402;28;20234;-75
2023/12/12 03:29:30;;;;;;;15.63;12.20;;;;;;;7.28;100.00;100592.78;6184390;28;20638;-75
2023/12/12 03:32:51;;;;;;;15.60;12.93;;;;;;;7.23;100.00;100602.03;6185250;28;20246;-75
2023/12/12 03:36:13;;;;;;;17.60;11.87;;;;;;;7.27;100.00;100597.28;6183669;28;20234;-75
2023/12/12 03:39:35;;;;;;;13.17;10.83;;;;;;;7.21;100.00;100597.78;6183485;28;20233;-75
2023/12/12 03:42:56;;;;;;;13.30;11.73;;;;;;;7.20;100.00;100602.28;6188294;28;20249;-75
2023/12/12 03:46:18;;;;;;;16.43;13.13;;;;;;;7.19;100.00;100600.56;6184408;28;20237;-74
2023/12/12 03:49:39;;;;;;;14.90;12.47;;;;;;;7.33;100.00;100596.78;6173493;28;20230;-74
2023/12/12 03:53:00;;;;;;;14.17;10.60;;;;;;;7.41;100.00;100604.19;6187597;28;20230;-74
2023/12/12 03:56:21;;;;;;;14.00;11.17;;;;;;;7.36;100.00;100593.88;6187188;28;20315;-74
2023/12/12 03:59:42;;;;;;;15.90;11.17;;;;;;;7.33;100.00;100591.41;6181773;28;20237;-75
2023/12/12 04:03:04;;;;;;;17.87;12.13;;;;;;;7.34;100.00;100590.47;6186387;28;20226;-74
2023/12/12 04:06:25;;;;;;;15.33;11.87;;;;;;;7.45;100.00;100600.34;6187396;28;20248;-73
2023/12/12 04:09:46;;;;;;;13.00;10.60;;;;;;;7.55;100.00;100601.28;6184479;28;20226;-74
2023/12/12 04:13:07;;;;;;;16.47;14.03;;;;;;;7.49;100.00;100599.09;6184338;28;20238;-74
2023/12/12 04:16:27;;;;;;;13.57;11.63;;;;;;;7.48;100.00;100608.97;6183862;28;20642;-75
2023/12/12 04:19:50;;;;;;;14.70;11.83;;;;;;;7.60;100.00;100613.34;6181311;28;20505;-75
2023/12/12 04:23:11;;;;;;;15.50;11.13;;;;;;;7.57;100.00;100610.06;6184086;28;20238;-73
2023/12/12 04:26:32;;;;;;;16.47;10.67;;;;;;;7.33;100.00;100599.47;6183332;28;20226;-74
2023/12/12 04:29:53;;;;;;;17.77;11.20;;;;;;;7.36;100.00;100604.59;6185536;28;20612;-75
2023/12/12 04:33:14;;;;;;;14.93;10.17;;;;;;;7.40;100.00;100603.38;6182035;28;20225;-75
2023/12/12 04:36:36;;;;;;;14.27;10.43;;;;;;;7.40;100.00;100606.06;6177486;28;20230;-75
2023/12/12 04:39:57;;;;;;;16.27;11.10;;;;;;;7.37;100.00;100606.28;6180014;28;20530;-75
2023/12/12 04:43:17;;;;;;;16.37;11.40;;;;;;;7.24;100.00;100611.78;6185463;28;20233;-75
2023/12/12 04:46:38;;;;;;;14.73;12.00;;;;;;;7.26;100.00;100622.38;6184671;28;20352;-75
2023/12/12 04:49:59;;;;;;;12.87;9.53;;;;;;;7.26;100.00;100617.00;6186546;28;20683;-75
2023/12/12 04:53:22;;;;;;;15.03;9.03;;;;;;;7.35;100.00;100613.59;6184469;28;20257;-75
2023/12/12 04:56:43;;;;;;;14.87;10.77;;;;;;;7.32;100.00;100619.22;6185043;28;20234;-76
2023/12/12 05:00:12;;;;;;;13.33;10.30;;;;;;;7.07;100.00;100619.44;6182409;28;20238;-74
2023/12/12 05:03:33;;;;;;;16.67;10.27;;;;;;;7.21;100.00;100616.53;6185903;28;20240;-74
2023/12/12 05:06:54;;;;;;;13.33;10.37;;;;;;;7.30;100.00;100628.34;6182751;28;20238;-74
2023/12/12 05:10:16;;;;;;;12.23;9.10;;;;;;;7.43;100.00;100616.53;6186377;28;20229;-75
2023/12/12 05:13:37;;;;;;;12.70;9.83;;;;;;;7.52;100.00;100622.97;6186163;28;20689;-74
2023/12/12 05:16:58;;;;;;;13.00;11.10;;;;;;;7.24;100.00;100627.00;6185875;28;20249;-74
2023/12/12 05:20:20;;;;;;;13.33;10.37;;;;;;;7.35;100.00;100629.69;6183924;28;20553;-74
2023/12/12 05:23:41;;;;;;;12.50;9.43;;;;;;;7.38;100.00;100633.97;6183386;28;20222;-74
2023/12/12 05:27:04;;;;;;;21.07;17.67;;;;;;;7.49;100.00;100634.78;6183753;28;20706;-74
2023/12/12 05:30:25;;;;;;;28.97;24.20;;;;;;;7.58;100.00;100641.25;6184779;28;20226;-75
2023/12/12 05:33:46;;;;;;;12.80;9.77;;;;;;;7.49;100.00;100631.28;6189730;28;20234;-75
2023/12/12 05:37:08;;;;;;;13.97;10.17;;;;;;;7.28;100.00;100639.19;6185385;28;21056;-73
2023/12/12 05:40:28;;;;;;;11.30;9.30;;;;;;;7.38;100.00;100647.38;6167571;28;20619;-74
2023/12/12 05:43:51;;;;;;;11.47;9.83;;;;;;;7.51;100.00;100648.94;6187443;28;20639;-74
2023/12/12 05:47:12;;;;;;;10.93;9.37;;;;;;;7.45;100.00;100654.78;6186340;28;20623;-74
2023/12/12 05:50:33;;;;;;;18.27;11.33;;;;;;;7.53;100.00;100660.41;6183656;28;20241;-73
2023/12/12 05:53:54;;;;;;;10.03;8.90;;;;;;;7.53;100.00;100654.19;6185687;28;20238;-72
2023/12/12 05:57:14;;;;;;;11.83;8.77;;;;;;;7.54;100.00;100654.06;6183321;28;20233;-71
2023/12/12 06:00:39;;;;;;;11.50;9.83;;;;;;;7.60;100.00;100658.09;6173966;28;21155;-73
2023/12/12 06:04:01;;;;;;;13.27;9.07;;;;;;;7.65;100.00;100659.44;6185161;28;20237;-73
2023/12/12 06:07:22;;;;;;;11.80;9.57;;;;;;;7.66;100.00;100653.09;6184864;28;20886;-72
2023/12/12 06:10:43;;;;;;;11.73;9.53;;;;;;;7.66;100.00;100657.59;6187456;28;20245;-74
2023/12/12 06:14:05;;;;;;;13.33;9.30;;;;;;;7.58;100.00;100655.53;6185498;28;20230;-71
2023/12/12 06:17:27;;;;;;;13.73;9.03;;;;;;;7.58;100.00;100660.91;6188241;28;20230;-72
2023/12/12 06:20:48;;;;;;;12.13;10.27;;;;;;;7.44;100.00;100669.19;6182674;28;20294;-73
2023/12/12 06:24:09;;;;;;;14.33;9.77;;;;;;;7.58;100.00;100671.63;6180423;28;20800;-72
2023/12/12 06:27:30;;;;;;;15.37;11.80;;;;;;;7.35;100.00;100667.22;6185280;28;20240;-72
2023/12/12 06:30:51;;;;;;;11.77;8.90;;;;;;;7.32;100.00;100674.66;6180483;28;20233;-71
2023/12/12 06:34:13;;;;;;;14.47;9.73;;;;;;;7.42;100.00;100668.47;6180257;28;20234;-71
2023/12/12 06:37:34;;;;;;;12.20;8.03;;;;;;;7.49;100.00;100668.84;6182868;28;20233;-72
2023/12/12 06:40:55;;;;;;;13.13;9.00;;;;;;;7.57;100.00;100666.41;6176122;28;20241;-73
2023/12/12 06:44:16;;;;;;;11.43;9.77;;;;;;;7.60;100.00;100672.34;6183235;28;20225;-72
2023/12/12 06:47:37;;;;;;;13.53;9.43;;;;;;;7.59;100.00;100669.81;6179531;28;20234;-73
2023/12/12 06:50:59;;;;;;;13.60;11.07;;;;;;;7.57;100.00;100667.22;6167901;28;20253;-72
2023/12/12 06:54:20;;;;;;;14.73;10.63;;;;;;;7.60;100.00;100666.13;6186265;28;20276;-73
2023/12/12 06:57:41;;;;;;;13.33;9.43;;;;;;;7.61;100.00;100660.66;6188573;28;20259;-72
2023/12/12 07:01:03;;;;;;;12.20;8.87;;;;;;;7.72;100.00;100662.47;6184923;28;20234;-73
2023/12/12 07:04:24;;;;;;;11.67;9.90;;;;;;;7.62;100.00;100654.31;6186491;28;20250;-73
2023/12/12 07:07:47;;;;;;;12.63;9.37;;;;;;;7.55;100.00;100657.63;6189956;28;20326;-72
2023/12/12 07:11:08;;;;;;;15.17;11.97;;;;;;;7.66;100.00;100665.63;6187469;28;20722;-73
2023/12/12 07:14:29;;;;;;;10.87;9.50;;;;;;;7.66;100.00;100653.09;6190024;28;20562;-71
2023/12/12 07:17:50;;;;;;;15.30;10.53;;;;;;;7.63;100.00;100660.53;6188920;28;20510;-72
2023/12/12 07:21:11;;;;;;;14.60;9.33;;;;;;;7.57;100.00;100661.84;6187487;28;20233;-73
2023/12/12 07:24:33;;;;;;;13.37;9.83;;;;;;;7.53;100.00;100667.63;6185171;28;20238;-72
2023/12/12 07:27:54;;;;;;;13.37;10.13;;;;;;;7.67;100.00;100668.22;6186247;28;20248;-72
2023/12/12 07:31:15;;;;;;;12.47;9.53;;;;;;;7.60;100.00;100669.66;6184252;28;20513;-72
2023/12/12 07:34:36;;;;;;;9.13;7.40;;;;;;;7.54;100.00;100672.84;6180757;28;20315;-71
2023/12/12 07:37:57;;;;;;;15.90;11.57;;;;;;;7.56;100.00;100670.03;6188065;28;20314;-73
2023/12/12 07:41:20;;;;;;;17.80;14.23;;;;;;;7.51;100.00;100672.25;6188330;28;20264;-73
2023/12/12 07:44:41;;;;;;;18.70;14.23;;;;;;;7.45;100.00;100678.94;6189104;28;20222;-73
2023/12/12 07:48:03;;;;;;;16.23;10.93;;;;;;;7.28;100.00;100682.94;6174123;28;20238;-71
2023/12/12 07:51:23;;;;;;;17.07;11.63;;;;;;;7.19;100.00;100686.34;6184505;28;20237;-73
2023/12/12 07:54:44;;;;;;;14.30;11.43;;;;;;;7.11;100.00;100695.97;6184529;28;20245;-73
2023/12/12 07:58:07;;;;;;;15.50;10.67;;;;;;;7.30;100.00;100681.97;6186234;28;20238;-72
2023/12/12 08:01:29;;;;;;;13.80;10.50;;;;;;;6.75;100.00;100690.72;6182001;28;20238;-72
2023/12/12 08:04:50;;;;;;;14.47;10.57;;;;;;;6.75;100.00;100696.94;6187186;28;20236;-73
2023/12/12 08:08:11;;;;;;;14.53;10.30;;;;;;;6.72;100.00;100697.16;6187820;28;20233;-73
2023/12/12 08:11:32;;;;;;;11.63;8.63;;;;;;;6.76;100.00;100697.81;6159852;28;20615;-73
2023/12/12 08:14:55;;;;;;;9.57;7.67;;;;;;;6.69;100.00;100699.25;6166813;28;20238;-73
2023/12/12 08:18:16;;;;;;;11.40;8.13;;;;;;;6.47;100.00;100698.16;6179926;28;20237;-73
2023/12/12 08:21:37;;;;;;;11.73;10.53;;;;;;;6.64;100.00;100706.75;6184906;28;20234;-73
2023/12/12 08:24:58;;;;;;;13.17;10.20;;;;;;;6.70;100.00;100703.59;6183675;28;20356;-73
2023/12/12 08:28:18;;;;;;;12.37;8.77;;;;;;;6.85;100.00;100710.50;6178576;28;20237;-73
2023/12/12 08:31:41;;;;;;;12.60;11.27;;;;;;;6.66;100.00;100704.81;6183498;28;20233;-73
2023/12/12 08:35:02;;;;;;;10.40;8.70;;;;;;;6.95;100.00;100707.00;6180339;28;20662;-72
2023/12/12 08:38:23;;;;;;;11.80;9.83;;;;;;;6.62;100.00;100711.38;6181696;28;20249;-72
2023/12/12 08:41:44;;;;;;;16.80;10.10;;;;;;;6.63;100.00;100705.91;6183763;28;20237;-73
2023/12/12 08:45:05;;;;;;;15.90;11.80;;;;;;;6.62;100.00;100714.06;6186919;28;20670;-73
2023/12/12 08:48:27;;;;;;;13.13;10.33;;;;;;;6.68;100.00;100716.25;6183539;28;20959;-73
2023/12/12 08:51:49;;;;;;;16.47;11.57;;;;;;;6.70;100.00;100715.19;6179157;28;22655;-73
2023/12/12 08:55:11;;;;;;;15.70;13.40;;;;;;;6.73;100.00;100704.25;6186129;28;20332;-74
2023/12/12 08:58:32;;;;;;;13.40;10.33;;;;;;;6.80;100.00;100710.00;6185987;28;20332;-73
2023/12/12 09:01:53;;;;;;;18.83;11.37;;;;;;;6.90;100.00;100698.47;6185634;28;20233;-73
2023/12/12 09:05:15;;;;;;;16.60;13.30;;;;;;;7.09;100.00;100697.91;6188521;28;20407;-73
2023/12/12 09:08:36;;;;;;;17.47;11.97;;;;;;;7.34;100.00;100699.53;6192167;28;20248;-73
2023/12/12 09:11:57;;;;;;;19.27;12.90;;;;;;;7.26;100.00;100709.00;6193541;28;20245;-73
2023/12/12 09:15:17;;;;;;;16.03;11.97;;;;;;;7.14;100.00;100709.97;6188740;28;20234;-72
2023/12/12 09:18:38;;;;;;;19.03;12.83;;;;;;;6.98;100.00;100712.13;6180581;28;20238;-73
2023/12/12 09:22:00;;;;;;;16.93;11.80;;;;;;;7.05;100.00;100709.84;6187203;28;20238;-73
2023/12/12 09:25:21;;;;;;;16.47;12.67;;;;;;;7.04;100.00;100708.13;6187690;28;20502;-73
2023/12/12 09:28:42;;;;;;;17.13;13.90;;;;;;;7.00;100.00;100712.00;6187323;28;20234;-73
2023/12/12 09:32:04;;;;;;;19.93;14.03;;;;;;;7.35;100.00;100702.09;6187840;28;20269;-73
2023/12/12 09:35:25;;;;;;;18.50;13.10;;;;;;;7.17;100.00;100707.06;6190048;28;20257;-73
2023/12/12 09:38:47;;;;;;;15.60;11.53;;;;;;;7.10;100.00;100708.50;6185486;28;20237;-72
2023/12/12 09:42:14;;;;;;;14.57;12.87;;;;;;;7.18;100.00;100710.56;6187589;28;20238;-73
2023/12/12 09:45:35;;;;;;;18.07;11.63;;;;;;;7.16;100.00;100708.03;6191502;28;20348;-73
2023/12/12 09:48:59;;;;;;;14.20;12.50;;;;;;;7.20;100.00;100704.13;6191446;28;20253;-73
2023/12/12 09:52:21;;;;;;;14.80;11.17;;;;;;;7.03;100.00;100709.09;6191371;28;20237;-73
2023/12/12 09:55:46;;;;;;;13.30;11.03;;;;;;;7.14;100.00;100703.75;6189504;28;20230;-71
2023/12/12 09:59:07;;;;;;;12.47;9.93;;;;;;;7.12;100.00;100708.38;6187854;28;20236;-72
2023/12/12 10:02:34;;;;;;;11.20;8.90;;;;;;;7.30;100.00;100698.06;6187481;28;20249;-72
2023/12/12 10:05:57;;;;;;;14.50;9.50;;;;;;;7.96;100.00;100695.38;6190672;28;20648;-73
2023/12/12 10:09:18;;;;;;;9.80;8.80;;;;;;;8.27;100.00;100691.06;6189517;28;20234;-73
2023/12/12 10:12:41;;;;;;;9.70;8.53;;;;;;;8.21;100.00;100683.50;6188889;28;20236;-73
2023/12/12 10:16:12;;;;;;;12.57;9.63;;;;;;;8.28;100.00;100680.19;6185732;28;20237;-72
2023/12/12 10:19:33;;;;;;;10.80;9.57;;;;;;;8.49;100.00;100681.09;6183497;28;20233;-73
2023/12/12 10:22:57;;;;;;;11.33;8.10;;;;;;;9.57;100.00;100676.19;6185705;28;20654;-73
2023/12/12 10:26:24;;;;;;;11.10;7.90;;;;;;;12.19;100.00;100648.75;6187694;28;20229;-72
2023/12/12 10:29:46;;;;;;;6.80;6.10;;;;;;;12.08;100.00;100655.22;6184130;28;20233;-73
2023/12/12 10:33:14;;;;;;;9.47;8.37;;;;;;;11.87;100.00;100643.81;6180210;28;20242;-73
2023/12/12 10:36:37;;;;;;;9.17;7.93;;;;;;;11.33;100.00;100646.47;6177338;28;20226;-73
2023/12/12 10:40:12;;;;;;;9.90;8.50;;;;;;;10.77;100.00;100649.97;6184532;28;20254;-73
2023/12/12 10:43:33;;;;;;;10.87;9.23;;;;;;;10.10;100.00;100639.13;6174360;28;20241;-73
2023/12/12 10:46:55;;;;;;;9.27;7.37;;;;;;;9.64;100.00;100644.22;6189773;28;20233;-73
2023/12/12 10:50:18;;;;;;;7.93;6.87;;;;;;;9.19;100.00;100646.41;6187614;28;20234;-73
2023/12/12 10:53:40;;;;;;;7.97;7.20;;;;;;;8.99;100.00;100649.13;6187368;28;20260;-73
2023/12/12 10:57:02;;;;;;;12.13;7.73;;;;;;;8.62;100.00;100643.31;6187285;28;20240;-72
2023/12/12 11:00:24;;;;;;;10.10;8.63;;;;;;;8.26;100.00;100644.56;6185872;28;20249;-72
2023/12/12 11:03:48;;;;;;;10.63;8.67;;;;;;;8.25;100.00;100650.94;6190636;28;20513;-72
2023/12/12 11:07:09;;;;;;;11.80;10.57;;;;;;;7.97;100.00;100644.25;6190327;28;20237;-72
2023/12/12 11:10:30;;;;;;;12.40;10.50;;;;;;;7.69;100.00;100639.44;6190786;28;20244;-73
2023/12/12 11:13:52;;;;;;;13.97;9.30;;;;;;;7.87;100.00;100626.34;6190951;28;20282;-72
2023/12/12 11:17:14;;;;;;;13.47;9.97;;;;;;;7.69;100.00;100630.53;6180044;28;20256;-73
2023/12/12 11:20:40;;;;;;;12.17;9.83;;;;;;;7.59;100.00;100625.06;6190954;28;20249;-73
2023/12/12 11:24:01;;;;;;;8.50;7.63;;;;;;;7.57;100.00;100618.13;6190496;28;20332;-72
2023/12/12 11:27:23;;;;;;;12.23;9.53;;;;;;;7.76;100.00;100621.84;6191068;28;20457;-73
2023/12/12 11:30:43;;;;;;;10.07;8.80;;;;;;;7.82;100.00;100613.28;6187071;28;20244;-73
2023/12/12 11:34:07;;;;;;;8.77;6.90;;;;;;;7.75;100.00;100609.41;6188615;28;20957;-73
2023/12/12 11:37:41;;;;;;;9.27;7.20;;;;;;;7.95;100.00;100602.41;6187114;28;20504;-73
2023/12/12 11:41:10;;;;;;;6.27;5.67;;;;;;;8.00;100.00;100594.84;6190245;28;20229;-72
2023/12/12 11:44:41;;;;;;;7.83;6.97;;;;;;;7.89;100.00;100590.34;6186332;28;20244;-72
2023/12/12 11:48:07;;;;;;;6.07;4.80;;;;;;;7.86;100.00;100587.91;6188552;28;20229;-72
2023/12/12 11:51:46;;;;;;;6.90;5.47;;;;;;;8.03;100.00;100587.38;6188601;28;20328;-72
2023/12/12 11:55:18;;;;;;;9.37;7.77;;;;;;;8.14;100.00;100577.56;6189060;28;20237;-72
2023/12/12 11:58:39;;;;;;;19.33;17.30;;;;;;;8.23;100.00;100580.34;6186973;28;20535;-72
2023/12/12 12:02:00;;;;;;;11.70;9.90;;;;;;;8.43;100.00;100582.25;6187202;28;20248;-72
2023/12/12 12:05:21;;;;;;;8.90;7.77;;;;;;;8.49;100.00;100568.28;6187947;28;20516;-73
2023/12/12 12:08:42;;;;;;;7.87;5.83;;;;;;;8.54;100.00;100576.81;6189035;28;20225;-73
2023/12/12 12:12:09;;;;;;;8.23;7.13;;;;;;;8.49;100.00;100562.09;6187947;28;20667;-73
2023/12/12 12:15:30;;;;;;;6.73;5.50;;;;;;;8.47;100.00;100564.88;6187015;28;20238;-72
2023/12/12 12:18:51;;;;;;;7.37;6.20;;;;;;;8.47;100.00;100562.19;6189377;28;20233;-73
2023/12/12 12:22:13;;;;;;;9.93;7.10;;;;;;;8.54;100.00;100555.31;6187400;28;20233;-73
2023/12/12 12:25:34;;;;;;;9.80;8.80;;;;;;;8.41;100.00;100554.66;6160524;28;20246;-72
2023/12/12 12:28:56;;;;;;;7.13;5.27;;;;;;;8.31;100.00;100550.19;6170720;28;20249;-73
2023/12/12 12:32:17;;;;;;;7.20;5.90;;;;;;;8.25;100.00;100543.53;6185818;28;20279;-72
2023/12/12 12:35:50;;;;;;;6.37;5.50;;;;;;;8.24;100.00;100543.63;6185491;28;20238;-72
2023/12/12 12:39:12;;;;;;;5.70;5.10;;;;;;;8.23;100.00;100542.78;6185327;28;20257;-73
2023/12/12 12:42:34;;;;;;;9.30;6.40;;;;;;;8.30;100.00;100544.00;6185298;28;20241;-72
2023/12/12 12:45:58;;;;;;;8.40;6.57;;;;;;;8.39;100.00;100536.97;6194240;28;20253;-73
2023/12/12 12:49:19;;;;;;;6.57;5.13;;;;;;;8.10;100.00;100534.03;6189590;28;20237;-73
2023/12/12 12:52:40;;;;;;;7.73;6.50;;;;;;;8.21;100.00;100534.00;6189570;28;21074;-72
2023/12/12 12:56:00;;;;;;;8.60;6.80;;;;;;;8.08;100.00;100527.94;6191359;28;20509;-72
2023/12/12 12:59:21;;;;;;;6.53;5.87;;;;;;;8.15;100.00;100526.47;6194123;28;21278;-73
2023/12/12 13:02:44;;;;;;;6.40;5.43;;;;;;;8.22;100.00;100527.63;6190053;28;20265;-73
2023/12/12 13:06:06;;;;;;;8.13;5.77;;;;;;;8.31;100.00;100524.19;6190753;28;20591;-73
2023/12/12 13:09:29;;;;;;;6.20;5.27;;;;;;;8.41;100.00;100532.31;6188671;28;20234;-74
2023/12/12 13:12:50;;;;;;;6.23;4.97;;;;;;;8.35;100.00;100528.31;6192110;28;20564;-73
2023/12/12 13:16:11;;;;;;;6.20;5.07;;;;;;;8.23;100.00;100523.97;6191556;28;20234;-73
2023/12/12 13:19:33;;;;;;;5.33;4.83;;;;;;;8.18;100.00;100519.97;6191125;28;20242;-73
2023/12/12 13:22:54;;;;;;;6.90;6.03;;;;;;;8.25;100.00;100521.16;6189572;28;20230;-73
2023/12/12 13:26:16;;;;;;;7.37;5.80;;;;;;;8.21;100.00;100515.19;6191235;28;20581;-73
2023/12/12 13:29:36;;;;;;;7.77;5.70;;;;;;;8.17;100.00;100516.44;6190786;28;20249;-72
2023/12/12 13:32:57;;;;;;;7.03;6.13;;;;;;;8.26;100.00;100514.84;6190410;28;20237;-73
2023/12/12 13:36:20;;;;;;;6.70;5.87;;;;;;;8.34;100.00;100509.66;6190360;28;20627;-73
2023/12/12 13:39:41;;;;;;;7.20;6.50;;;;;;;8.30;100.00;100495.66;6190884;28;20257;-73
2023/12/12 13:43:02;;;;;;;6.83;6.10;;;;;;;8.18;100.00;100498.50;6176990;28;20325;-72
2023/12/12 13:46:23;;;;;;;6.30;5.70;;;;;;;8.03;100.00;100503.34;6188162;28;20250;-73
2023/12/12 13:49:44;;;;;;;8.70;6.23;;;;;;;7.97;100.00;100504.69;6188131;28;20255;-73
2023/12/12 13:53:06;;;;;;;14.67;12.80;;;;;;;7.97;100.00;100507.38;6174676;28;20225;-72
2023/12/12 13:56:27;;;;;;;11.33;8.07;;;;;;;7.89;100.00;100506.31;6189191;28;20233;-72
2023/12/12 13:59:48;;;;;;;8.47;6.30;;;;;;;7.95;100.00;100498.59;6190420;28;20580;-72
2023/12/12 14:03:09;;;;;;;7.73;6.83;;;;;;;8.03;100.00;100506.03;6189824;28;20618;-71
2023/12/12 14:06:30;;;;;;;8.67;7.10;;;;;;;8.08;100.00;100510.00;6186998;28;20324;-72
2023/12/12 14:09:52;;;;;;;9.90;7.37;;;;;;;8.03;100.00;100509.53;6187539;28;20242;-73
2023/12/12 14:13:12;;;;;;;7.03;5.43;;;;;;;8.05;100.00;100506.75;6188653;28;20232;-73
2023/12/12 14:16:33;;;;;;;8.67;6.97;;;;;;;8.06;100.00;100511.97;6191962;28;20316;-73
2023/12/12 14:19:55;;;;;;;8.87;5.87;;;;;;;7.99;100.00;100501.88;6173687;28;20237;-73
2023/12/12 14:23:15;;;;;;;6.60;5.47;;;;;;;7.96;100.00;100492.25;6186436;28;20249;-72
2023/12/12 14:26:38;;;;;;;7.47;6.67;;;;;;;8.08;100.00;100501.97;6177759;28;20236;-73
2023/12/12 14:29:59;;;;;;;8.77;4.93;;;;;;;8.00;100.00;100495.53;6173393;28;20374;-73
2023/12/12 14:33:20;;;;;;;8.90;6.87;;;;;;;7.97;100.00;100493.94;6190096;28;20907;-73
2023/12/12 14:36:41;;;;;;;6.60;5.10;;;;;;;8.01;100.00;100492.72;6189586;28;20245;-73
2023/12/12 14:40:04;;;;;;;7.10;5.20;;;;;;;7.98;100.00;100490.31;6189811;28;20237;-73
2023/12/12 14:43:26;;;;;;;7.90;6.17;;;;;;;7.96;100.00;100492.25;6180515;28;20237;-73
2023/12/12 14:46:49;;;;;;;8.70;7.17;;;;;;;8.03;100.00;100495.28;6191963;28;20266;-73
2023/12/12 14:50:10;;;;;;;6.37;5.77;;;;;;;7.93;100.00;100491.66;6184969;28;20226;-73
2023/12/12 14:53:31;;;;;;;7.63;5.60;;;;;;;7.96;100.00;100489.56;6190423;28;21343;-72
2023/12/12 14:56:52;;;;;;;10.90;9.80;;;;;;;7.94;100.00;100477.25;6187751;28;20233;-73
2023/12/12 15:00:15;;;;;;;8.73;7.10;;;;;;;7.75;100.00;100472.59;6190221;28;20253;-72
2023/12/12 15:03:36;;;;;;;10.90;7.53;;;;;;;7.69;100.00;100467.75;6162211;28;20233;-72
2023/12/12 15:06:57;;;;;;;9.23;6.27;;;;;;;7.67;100.00;100453.59;6190029;28;20449;-73
2023/12/12 15:10:18;;;;;;;7.87;6.43;;;;;;;7.71;100.00;100451.50;6186829;28;20244;-72
2023/12/12 15:13:39;;;;;;;8.13;6.37;;;;;;;7.65;100.00;100455.56;6190100;28;20266;-73
2023/12/12 15:17:02;;;;;;;5.77;5.13;;;;;;;7.64;100.00;100443.13;6186728;28;20969;-74
2023/12/12 15:20:23;;;;;;;7.30;6.60;;;;;;;7.55;100.00;100437.69;6171644;28;20233;-73
2023/12/12 15:23:44;;;;;;;9.37;6.63;;;;;;;7.54;100.00;100442.19;6186108;28;20257;-73
2023/12/12 15:27:09;;;;;;;8.03;7.23;;;;;;;7.59;100.00;100433.75;6171585;28;20230;-73